Cedar Hill, Tennessee
Current Conditions -  °F | °C
As of 2:15 AM on Monday 24 Nov 2014 (Local Time) from KM91 Reporting Station
Overcast Overcast  
Wind Chill: 63°   Ceiling: 3500
Heat Index: 63°   Visibility: 10mi
Dew Point: 59°   Wind: 17mph
Humidity: 88%   Direction: 200°SSW
Pressure: 29.42"   Gusts: NA
Location:  36.55°N, 87°W
Report Text: KM91 240815Z AUTO 20015KT 10SM SCT029 BKN035 OVC041 17/15 A2942 RMK
Loading
Personal Weather Stations






























Interactive Weather Map New forecast layout! Learn more

10-Day Weather Forecast

Advertisements
Track Severe Weather on mobile